createdAt,value
2023-08-15T00:01:08.413Z,100235.41
2023-08-15T00:03:36.712Z,100240.28
2023-08-15T00:06:06.296Z,100236.53
2023-08-15T00:08:34.473Z,100234.41
2023-08-15T00:11:02.535Z,100229.31
2023-08-15T00:13:30.675Z,100237.84
2023-08-15T00:15:58.804Z,100243.06
2023-08-15T00:18:27.013Z,100240.38
2023-08-15T00:20:55.091Z,100238.84
2023-08-15T00:23:24.644Z,100227.25
2023-08-15T00:25:52.719Z,100224.69
2023-08-15T00:28:20.904Z,100225.53
2023-08-15T00:30:49.083Z,100224.81
2023-08-15T00:33:17.158Z,100227.91
2023-08-15T00:35:45.559Z,100222.88
2023-08-15T00:38:13.778Z,100228.00
2023-08-15T00:40:43.572Z,100219.09
2023-08-15T00:43:12.080Z,100228.00
2023-08-15T00:45:42.738Z,100222.75
2023-08-15T00:48:12.129Z,100222.00
2023-08-15T00:50:41.165Z,100224.81
2023-08-15T00:53:09.654Z,100231.84
2023-08-15T00:55:38.077Z,100228.38
2023-08-15T00:58:08.115Z,100228.47
2023-08-15T01:00:36.489Z,100231.91
2023-08-15T01:03:05.148Z,100229.47
2023-08-15T01:05:33.986Z,100227.38
2023-08-15T01:08:02.451Z,100228.84
2023-08-15T01:10:30.767Z,100228.31
2023-08-15T01:13:07.837Z,100221.81
2023-08-15T01:15:43.816Z,100219.75
2023-08-15T01:18:17.564Z,100226.63
2023-08-15T01:20:46.309Z,100219.28
2023-08-15T01:23:16.577Z,100222.16
2023-08-15T01:25:46.059Z,100224.13
2023-08-15T01:28:15.690Z,100214.84
2023-08-15T01:30:48.756Z,100229.00
2023-08-15T01:33:21.408Z,100224.50
2023-08-15T01:35:58.109Z,100229.00
2023-08-15T01:38:33.666Z,100238.66
2023-08-15T01:41:05.743Z,100233.59
2023-08-15T01:43:35.436Z,100224.16
2023-08-15T01:46:04.030Z,100221.50
2023-08-15T01:48:32.223Z,100223.44
2023-08-15T01:51:00.629Z,100220.88
2023-08-15T01:53:28.775Z,100229.25
2023-08-15T01:55:56.886Z,100227.91
2023-08-15T01:58:26.407Z,100230.00
2023-08-15T02:00:54.525Z,100227.50
2023-08-15T02:03:22.843Z,100235.31
2023-08-15T02:05:51.014Z,100225.25
2023-08-15T02:08:19.184Z,100227.69
2023-08-15T02:10:47.330Z,100224.75
2023-08-15T02:13:15.425Z,100229.34
2023-08-15T02:15:45.165Z,100224.13
2023-08-15T02:18:13.436Z,100226.09
2023-08-15T02:20:41.641Z,100222.03
2023-08-15T02:23:09.803Z,100224.00
2023-08-15T02:25:37.909Z,100226.41
2023-08-15T02:28:05.698Z,100224.31
2023-08-15T02:30:38.451Z,100221.09
2023-08-15T02:33:08.890Z,100217.31
2023-08-15T02:35:41.077Z,100221.81
2023-08-15T02:38:09.447Z,100222.78
2023-08-15T02:40:37.705Z,100221.41
2023-08-15T02:43:06.289Z,100225.72
2023-08-15T02:45:34.431Z,100224.28
2023-08-15T02:48:02.654Z,100225.41
2023-08-15T02:50:32.205Z,100226.09
2023-08-15T02:53:00.338Z,100220.31
2023-08-15T02:55:28.401Z,100224.81
2023-08-15T02:57:56.534Z,100217.44
2023-08-15T03:00:24.696Z,100218.28
2023-08-15T03:02:52.821Z,100221.09
2023-08-15T03:05:21.305Z,100219.41
2023-08-15T03:07:50.814Z,100222.97
2023-08-15T03:10:18.965Z,100221.13
2023-08-15T03:12:47.110Z,100226.16
2023-08-15T03:15:15.246Z,100219.25
2023-08-15T03:17:44.144Z,100214.59
2023-08-15T03:20:13.367Z,100213.75
2023-08-15T03:22:45.436Z,100212.00
2023-08-15T03:25:14.969Z,100212.75
2023-08-15T03:27:43.089Z,100217.41
2023-08-15T03:30:12.308Z,100219.41
2023-08-15T03:32:40.498Z,100213.19
2023-08-15T03:35:09.759Z,100215.16
2023-08-15T03:37:37.903Z,100218.78
2023-08-15T03:40:07.180Z,100212.56
2023-08-15T03:42:36.717Z,100217.78
2023-08-15T03:45:05.395Z,100211.84
2023-08-15T03:47:33.584Z,100217.78
2023-08-15T03:50:01.784Z,100217.22
2023-08-15T03:52:29.882Z,100222.69
2023-08-15T03:54:57.940Z,100227.16
2023-08-15T03:57:26.142Z,100224.84
2023-08-15T03:59:55.763Z,100225.66
2023-08-15T04:02:23.930Z,100218.66
2023-08-15T04:04:52.051Z,100228.34
2023-08-15T04:07:20.451Z,100234.44
2023-08-15T04:09:48.686Z,100226.75
2023-08-15T04:12:16.826Z,100228.88
2023-08-15T04:14:45.114Z,100228.09
2023-08-15T04:17:14.572Z,100227.56
2023-08-15T04:19:42.698Z,100230.56
2023-08-15T04:22:10.796Z,100225.66
2023-08-15T04:24:38.917Z,100227.41
2023-08-15T04:27:08.961Z,100230.63
2023-08-15T04:29:37.126Z,100236.75
2023-08-15T04:32:05.695Z,100229.75
2023-08-15T04:34:35.180Z,100231.03
2023-08-15T04:37:03.293Z,100228.44
2023-08-15T04:39:31.427Z,100233.19
2023-08-15T04:41:59.528Z,100237.06
2023-08-15T04:44:27.620Z,100236.16
2023-08-15T04:46:56.011Z,100239.44
2023-08-15T04:49:24.075Z,100232.94
2023-08-15T04:51:53.561Z,100237.03
2023-08-15T04:54:21.672Z,100235.34
2023-08-15T04:56:50.252Z,100240.63
2023-08-15T04:59:19.021Z,100238.56
2023-08-15T05:01:47.318Z,100235.75
2023-08-15T05:04:15.541Z,100236.41
2023-08-15T05:06:43.589Z,100241.44
2023-08-15T05:09:13.140Z,100242.38
2023-08-15T05:11:41.281Z,100237.59
2023-08-15T05:14:09.342Z,100244.47
2023-08-15T05:16:37.496Z,100241.59
2023-08-15T05:19:05.848Z,100239.38
2023-08-15T05:21:34.039Z,100239.94
2023-08-15T05:24:02.252Z,100245.31
2023-08-15T05:26:31.765Z,100241.09
2023-08-15T05:28:59.909Z,100242.56
2023-08-15T05:31:28.134Z,100244.19
2023-08-15T05:33:56.315Z,100245.38
2023-08-15T05:36:24.479Z,100245.84
2023-08-15T05:38:52.596Z,100249.97
2023-08-15T05:41:20.696Z,100249.13
2023-08-15T05:43:50.171Z,100238.88
2023-08-15T05:46:18.253Z,100249.72
2023-08-15T05:48:46.379Z,100249.31
2023-08-15T05:51:14.493Z,100252.16
2023-08-15T05:53:42.686Z,100254.63
2023-08-15T05:56:10.834Z,100260.66
2023-08-15T05:58:39.022Z,100251.16
2023-08-15T06:01:08.801Z,100258.53
2023-08-15T06:06:09.461Z,100255.31
2023-08-15T06:08:37.644Z,100245.88
2023-08-15T06:11:05.779Z,100251.31
2023-08-15T06:13:33.888Z,100252.44
2023-08-15T06:16:02.061Z,100252.81
2023-08-15T06:18:31.534Z,100258.66
2023-08-15T06:20:59.626Z,100250.91
2023-08-15T06:23:27.817Z,100249.44
2023-08-15T06:25:55.999Z,100259.97
2023-08-15T06:28:24.080Z,100254.75
2023-08-15T06:30:52.361Z,100257.13
2023-08-15T06:33:20.564Z,100255.16
2023-08-15T06:35:50.107Z,100256.06
2023-08-15T06:38:18.213Z,100255.66
2023-08-15T06:40:46.321Z,100242.66
2023-08-15T06:43:14.425Z,100243.06
2023-08-15T06:45:44.685Z,100247.81
2023-08-15T06:48:12.796Z,100250.44
2023-08-15T06:50:40.930Z,100254.47
2023-08-15T06:53:10.445Z,100251.84
2023-08-15T06:55:38.746Z,100253.13
2023-08-15T06:58:07.415Z,100259.03
2023-08-15T07:00:36.091Z,100259.19
2023-08-15T07:03:04.411Z,100250.66
2023-08-15T07:05:32.568Z,100248.34
2023-08-15T07:08:01.094Z,100241.81
2023-08-15T07:10:30.568Z,100241.59
2023-08-15T07:12:58.697Z,100248.41
2023-08-15T07:15:26.799Z,100248.22
2023-08-15T07:17:55.095Z,100252.59
2023-08-15T07:20:23.262Z,100243.00
2023-08-15T07:22:51.456Z,100246.16
2023-08-15T07:25:19.768Z,100242.13
2023-08-15T07:27:49.524Z,100242.97
2023-08-15T07:30:17.674Z,100245.06
2023-08-15T07:32:45.849Z,100242.16
2023-08-15T07:35:14.272Z,100238.41
2023-08-15T07:37:42.446Z,100240.50
2023-08-15T07:40:11.812Z,100242.34
2023-08-15T07:42:40.053Z,100248.84
2023-08-15T07:45:10.761Z,100240.91
2023-08-15T07:47:39.746Z,100242.97
2023-08-15T07:50:16.081Z,100247.84
2023-08-15T07:52:44.766Z,100246.13
2023-08-15T07:55:13.672Z,100237.09
2023-08-15T07:57:42.043Z,100248.00
2023-08-15T08:00:14.105Z,100238.59
2023-08-15T08:02:43.016Z,100243.00
2023-08-15T08:05:12.879Z,100234.81
2023-08-15T08:07:43.559Z,100243.84
2023-08-15T08:10:12.177Z,100235.16
2023-08-15T08:12:40.541Z,100235.19
2023-08-15T08:15:09.554Z,100240.03
2023-08-15T08:17:39.293Z,100232.47
2023-08-15T08:20:13.492Z,100228.44
2023-08-15T08:22:43.086Z,100235.03
2023-08-15T08:25:17.514Z,100237.72
2023-08-15T08:27:46.301Z,100237.06
2023-08-15T08:30:15.665Z,100240.44
2023-08-15T08:32:45.471Z,100229.16
2023-08-15T08:35:16.568Z,100224.56
2023-08-15T08:37:45.648Z,100227.28
2023-08-15T08:40:15.019Z,100231.91
2023-08-15T08:42:43.683Z,100230.84
2023-08-15T08:45:12.732Z,100226.88
2023-08-15T08:47:41.877Z,100225.16
2023-08-15T08:50:12.806Z,100233.31
2023-08-15T08:52:43.264Z,100236.63
2023-08-15T08:55:12.797Z,100237.44
2023-08-15T08:57:44.581Z,100226.97
2023-08-15T09:00:15.531Z,100225.19
2023-08-15T09:02:43.785Z,100225.25
2023-08-15T09:05:13.395Z,100215.59
2023-08-15T09:07:43.475Z,100219.47
2023-08-15T09:10:12.817Z,100221.53
2023-08-15T09:12:42.142Z,100214.94
2023-08-15T09:15:11.900Z,100215.59
2023-08-15T09:17:40.344Z,100226.50
2023-08-15T09:20:15.687Z,100214.69
2023-08-15T09:22:47.007Z,100211.16
2023-08-15T09:25:17.140Z,100213.56
2023-08-15T09:27:45.973Z,100212.16
2023-08-15T09:30:16.123Z,100208.84
2023-08-15T09:32:46.813Z,100214.97
2023-08-15T09:35:18.480Z,100207.09
2023-08-15T09:37:48.494Z,100205.78
2023-08-15T09:40:19.150Z,100212.97
2023-08-15T09:42:47.950Z,100211.22
2023-08-15T09:45:16.991Z,100212.56
2023-08-15T09:47:46.966Z,100211.53
2023-08-15T09:50:17.852Z,100214.41
2023-08-15T09:52:52.001Z,100218.44
2023-08-15T09:55:21.303Z,100207.66
2023-08-15T09:57:50.874Z,100206.56
2023-08-15T10:00:19.606Z,100219.31
2023-08-15T10:02:50.903Z,100206.09
2023-08-15T10:05:23.955Z,100207.97
2023-08-15T10:07:52.605Z,100200.22
2023-08-15T10:10:22.019Z,100210.38
2023-08-15T10:12:52.376Z,100217.97
2023-08-15T10:15:22.603Z,100217.22
2023-08-15T10:17:52.145Z,100215.66
2023-08-15T10:20:23.040Z,100223.28
2023-08-15T10:22:56.733Z,100217.28
2023-08-15T10:25:38.388Z,100219.34
2023-08-15T10:28:07.673Z,100214.03
2023-08-15T10:30:37.778Z,100207.38
2023-08-15T10:33:17.088Z,100213.28
2023-08-15T10:35:52.098Z,100209.97
2023-08-15T10:38:22.769Z,100194.72
2023-08-15T10:40:53.419Z,100193.22
2023-08-15T10:43:27.191Z,100193.31
2023-08-15T10:45:58.809Z,100191.97
2023-08-15T10:48:59.983Z,100185.34
2023-08-15T10:51:33.246Z,100190.06
2023-08-15T10:54:03.277Z,100191.16
2023-08-15T10:56:32.745Z,100193.25
2023-08-15T10:59:06.725Z,100189.00
2023-08-15T11:01:35.126Z,100185.28
2023-08-15T11:04:04.451Z,100183.59
2023-08-15T11:06:42.826Z,100188.22
2023-08-15T11:09:12.323Z,100180.59
2023-08-15T11:11:40.820Z,100182.50
2023-08-15T11:14:17.693Z,100179.66
2023-08-15T11:16:47.139Z,100175.38
2023-08-15T11:19:17.120Z,100173.97
2023-08-15T11:21:47.001Z,100173.00
2023-08-15T11:24:15.105Z,100174.94
2023-08-15T11:26:43.347Z,100172.31
2023-08-15T11:29:12.413Z,100167.66
2023-08-15T11:31:40.957Z,100168.88
2023-08-15T11:34:12.439Z,100176.00
2023-08-15T11:36:41.185Z,100164.47
2023-08-15T11:39:15.025Z,100168.19
2023-08-15T11:41:44.094Z,100170.41
2023-08-15T11:44:12.734Z,100177.09
2023-08-15T11:49:18.131Z,100181.09
2023-08-15T11:51:46.431Z,100169.44
2023-08-15T11:54:15.949Z,100159.84
2023-08-15T11:56:51.140Z,100165.97
2023-08-15T11:59:20.132Z,100160.06
2023-08-15T12:01:49.257Z,100153.00
2023-08-15T12:04:18.833Z,100146.22
2023-08-15T12:06:47.347Z,100139.47
2023-08-15T12:09:17.225Z,100140.75
2023-08-15T12:11:45.375Z,100141.88
2023-08-15T12:14:20.699Z,100152.50
2023-08-15T12:16:49.072Z,100138.50
2023-08-15T12:19:21.047Z,100132.03
2023-08-15T12:21:51.654Z,100127.44
2023-08-15T12:24:21.282Z,100120.53
2023-08-15T12:26:49.393Z,100116.16
2023-08-15T12:29:18.245Z,100117.34
2023-08-15T12:31:47.049Z,100119.72
2023-08-15T12:34:15.520Z,100123.03
2023-08-15T12:36:43.662Z,100125.44
2023-08-15T12:39:11.893Z,100124.94
2023-08-15T12:41:41.551Z,100131.97
2023-08-15T12:44:09.864Z,100123.19
2023-08-15T12:46:38.005Z,100126.59
2023-08-15T12:49:06.420Z,100116.25
2023-08-15T12:51:34.672Z,100124.72
2023-08-15T12:54:02.847Z,100118.28
2023-08-15T12:56:31.024Z,100119.75
2023-08-15T12:59:00.686Z,100114.84
2023-08-15T13:01:29.213Z,100116.84
2023-08-15T13:03:58.048Z,100111.84
2023-08-15T13:06:26.127Z,100107.53
2023-08-15T13:08:54.246Z,100105.94
2023-08-15T13:11:22.563Z,100104.69
2023-08-15T13:13:50.785Z,100099.38
2023-08-15T13:16:20.454Z,100089.88
2023-08-15T13:18:48.624Z,100091.28
2023-08-15T13:21:16.862Z,100082.94
2023-08-15T13:23:46.593Z,100081.94
2023-08-15T13:26:15.103Z,100080.19
2023-08-15T13:28:43.301Z,100069.78
2023-08-15T13:31:11.489Z,100075.28
2023-08-15T13:33:41.248Z,100075.00
2023-08-15T13:36:09.933Z,100067.56
2023-08-15T13:38:38.795Z,100078.69
2023-08-15T13:41:07.490Z,100068.44
2023-08-15T13:43:35.613Z,100071.53
2023-08-15T13:46:04.671Z,100074.97
2023-08-15T13:48:32.850Z,100070.22
2023-08-15T13:51:04.436Z,100072.13
2023-08-15T13:53:32.620Z,100077.25
2023-08-15T13:56:00.813Z,100075.13
2023-08-15T13:58:30.207Z,100075.41
2023-08-15T14:00:59.232Z,100069.28
2023-08-15T14:03:31.048Z,100073.09
2023-08-15T14:06:00.285Z,100068.78
2023-08-15T14:08:30.571Z,100067.72
2023-08-15T14:10:59.614Z,100066.31
2023-08-15T14:13:27.804Z,100056.41
2023-08-15T14:15:55.976Z,100065.22
2023-08-15T14:18:24.593Z,100063.78
2023-08-15T14:20:52.810Z,100063.41
2023-08-15T14:23:21.348Z,100062.59
2023-08-15T14:25:51.317Z,100066.78
2023-08-15T14:28:19.443Z,100064.03
2023-08-15T14:30:48.072Z,100072.38
2023-08-15T14:33:17.676Z,100073.19
2023-08-15T14:35:46.180Z,100056.38
2023-08-15T14:38:15.153Z,100055.81
2023-08-15T14:40:43.725Z,100055.81
2023-08-15T14:43:13.412Z,100051.44
2023-08-15T14:45:41.579Z,100050.81
2023-08-15T14:48:09.748Z,100050.59
2023-08-15T14:50:37.933Z,100052.41
2023-08-15T14:53:06.550Z,100045.81
2023-08-15T14:55:35.010Z,100040.38
2023-08-15T14:58:03.799Z,100042.72
2023-08-15T15:00:33.416Z,100030.94
2023-08-15T15:03:01.622Z,100031.41
2023-08-15T15:05:29.846Z,100033.91
2023-08-15T15:07:57.848Z,100037.38
2023-08-15T15:10:26.004Z,100039.47
2023-08-15T15:12:54.203Z,100036.25
2023-08-15T15:15:31.531Z,100039.75
2023-08-15T15:18:10.745Z,100027.84
2023-08-15T15:20:38.926Z,100032.16
2023-08-15T15:23:07.028Z,100027.63
2023-08-15T15:25:35.367Z,100026.56
2023-08-15T15:28:03.526Z,100023.09
2023-08-15T15:30:31.621Z,100025.06
2023-08-15T15:32:59.764Z,100022.78
2023-08-15T15:35:29.450Z,100016.59
2023-08-15T15:37:57.555Z,100028.91
2023-08-15T15:40:25.698Z,100015.81
2023-08-15T15:42:53.792Z,100015.13
2023-08-15T15:45:21.935Z,100014.63
2023-08-15T15:47:50.180Z,100002.13
2023-08-15T15:50:20.826Z,100006.78
2023-08-15T15:52:50.818Z,100006.03
2023-08-15T15:55:22.535Z,100005.94
2023-08-15T15:57:51.845Z,100002.75
2023-08-15T16:00:21.177Z,100009.59
2023-08-15T16:02:49.785Z,100014.84
2023-08-15T16:05:17.957Z,100013.25
2023-08-15T16:07:46.074Z,100006.56
2023-08-15T16:10:15.661Z,100009.63
2023-08-15T16:12:43.787Z,100013.88
2023-08-15T16:15:12.489Z,100015.22
2023-08-15T16:17:43.983Z,100020.50
2023-08-15T16:20:13.608Z,100022.31
2023-08-15T16:22:41.782Z,100017.69
2023-08-15T16:25:10.333Z,100024.66
2023-08-15T16:27:39.986Z,100019.94
2023-08-15T16:30:17.317Z,100019.34
2023-08-15T16:32:49.104Z,100017.59
2023-08-15T16:35:17.611Z,100019.09
2023-08-15T16:37:47.081Z,100018.72
2023-08-15T16:40:15.549Z,100018.38
2023-08-15T16:42:45.160Z,100025.53
2023-08-15T16:45:14.205Z,100018.53
2023-08-15T16:47:45.510Z,100019.06
2023-08-15T16:50:14.424Z,100024.59
2023-08-15T16:52:42.971Z,100019.63
2023-08-15T16:55:11.695Z,100022.53
2023-08-15T16:57:40.610Z,100021.38
2023-08-15T17:00:13.084Z,100022.25
2023-08-15T17:02:41.975Z,100022.03
2023-08-15T17:05:12.152Z,100022.28
2023-08-15T17:07:40.792Z,100020.63
2023-08-15T17:10:10.679Z,100025.47
2023-08-15T17:12:40.827Z,100025.06
2023-08-15T17:15:12.952Z,100028.03
2023-08-15T17:17:41.326Z,100026.16
2023-08-15T17:20:11.022Z,100021.59
2023-08-15T17:22:40.039Z,100027.28
2023-08-15T17:25:09.504Z,100033.41
2023-08-15T17:27:37.789Z,100029.22
2023-08-15T17:30:06.918Z,100039.25
2023-08-15T17:32:39.038Z,100043.88
2023-08-15T17:35:09.350Z,100050.72
2023-08-15T17:37:37.976Z,100041.25
2023-08-15T17:40:07.477Z,100044.16
2023-08-15T17:42:36.411Z,100040.47
2023-08-15T17:45:06.031Z,100031.38
2023-08-15T17:47:35.331Z,100009.50
2023-08-15T17:50:07.372Z,100004.22
2023-08-15T17:52:37.213Z,100023.38
2023-08-15T17:55:06.513Z,100036.28
2023-08-15T17:57:35.497Z,100046.72
2023-08-15T18:00:05.148Z,100061.94
2023-08-15T18:02:34.698Z,100061.56
2023-08-15T18:05:07.003Z,100056.13
2023-08-15T18:07:35.171Z,100056.78
2023-08-15T18:10:05.446Z,100055.50
2023-08-15T18:12:35.312Z,100061.94
2023-08-15T18:15:03.956Z,100064.22
2023-08-15T18:17:32.987Z,100061.44
2023-08-15T18:20:01.790Z,100062.84
2023-08-15T18:22:32.536Z,100078.84
2023-08-15T18:25:01.807Z,100078.94
2023-08-15T18:27:31.265Z,100083.06
2023-08-15T18:30:02.476Z,100089.06
2023-08-15T18:32:31.419Z,100086.47
2023-08-15T18:35:00.500Z,100092.34
2023-08-15T18:37:30.071Z,100095.34
2023-08-15T18:40:00.461Z,100091.69
2023-08-15T18:42:29.501Z,100083.06
2023-08-15T18:44:58.849Z,100082.78
2023-08-15T18:47:27.618Z,100077.44
2023-08-15T18:49:56.572Z,100074.91
2023-08-15T18:52:28.252Z,100076.44
2023-08-15T18:54:56.873Z,100068.78
2023-08-15T18:57:27.398Z,100060.22
2023-08-15T19:00:00.963Z,100065.34
2023-08-15T19:02:29.289Z,100068.44
2023-08-15T19:04:59.951Z,100062.31
2023-08-15T19:07:29.776Z,100067.47
2023-08-15T19:09:58.061Z,100068.34
2023-08-15T19:12:29.090Z,100063.50
2023-08-15T19:14:59.060Z,100065.69
2023-08-15T19:17:28.969Z,100070.63
2023-08-15T19:19:59.377Z,100082.81
2023-08-15T19:22:28.908Z,100084.81
2023-08-15T19:24:58.305Z,100087.84
2023-08-15T19:27:30.764Z,100093.94
2023-08-15T19:30:01.126Z,100088.88
2023-08-15T19:32:30.213Z,100098.72
2023-08-15T19:34:58.868Z,100104.47
2023-08-15T19:37:36.913Z,100102.41
2023-08-15T19:40:10.091Z,100106.66
2023-08-15T19:42:44.792Z,100108.88
2023-08-15T19:45:16.746Z,100119.53
2023-08-15T19:47:45.996Z,100109.31
2023-08-15T19:50:14.429Z,100112.22
2023-08-15T19:52:43.752Z,100110.34
2023-08-15T19:55:13.816Z,100109.00
2023-08-15T19:57:44.257Z,100113.38
2023-08-15T20:00:14.996Z,100121.13
2023-08-15T20:02:44.115Z,100119.63
2023-08-15T20:05:12.389Z,100122.47
2023-08-15T20:07:41.893Z,100133.25
2023-08-15T20:10:12.578Z,100145.69
2023-08-15T20:12:43.314Z,100151.75
2023-08-15T20:15:13.596Z,100149.75
2023-08-15T20:17:43.374Z,100151.75
2023-08-15T20:20:13.593Z,100159.84
2023-08-15T20:22:42.595Z,100166.53
2023-08-15T20:25:11.742Z,100164.00
2023-08-15T20:27:40.637Z,100160.81
2023-08-15T20:30:11.485Z,100160.97
2023-08-15T20:32:40.840Z,100170.22
2023-08-15T20:35:12.241Z,100160.16
2023-08-15T20:37:41.134Z,100155.78
2023-08-15T20:40:12.233Z,100154.94
2023-08-15T20:42:41.100Z,100157.47
2023-08-15T20:45:12.332Z,100150.91
2023-08-15T20:47:41.234Z,100151.75
2023-08-15T20:50:10.551Z,100152.78
2023-08-15T20:52:38.940Z,100154.63
2023-08-15T20:55:09.047Z,100152.78
2023-08-15T20:57:37.230Z,100150.41
2023-08-15T21:00:06.432Z,100161.50
2023-08-15T21:02:35.939Z,100161.69
2023-08-15T21:05:04.749Z,100151.44
2023-08-15T21:07:32.782Z,100157.13
2023-08-15T21:10:01.955Z,100151.09
2023-08-15T21:12:30.451Z,100147.38
2023-08-15T21:14:58.574Z,100139.63
2023-08-15T21:17:26.908Z,100141.16
2023-08-15T21:19:56.917Z,100143.69
2023-08-15T21:22:25.131Z,100145.34
2023-08-15T21:24:53.264Z,100149.75
2023-08-15T21:27:21.439Z,100145.34
2023-08-15T21:29:49.881Z,100145.72
2023-08-15T21:32:18.113Z,100145.34
2023-08-15T21:34:46.414Z,100140.31
2023-08-15T21:37:16.140Z,100145.38
2023-08-15T21:39:44.265Z,100146.00
2023-08-15T21:42:12.377Z,100145.69
2023-08-15T21:44:40.521Z,100150.72
2023-08-15T21:47:09.297Z,100154.91
2023-08-15T21:49:37.364Z,100154.75
2023-08-15T21:52:06.007Z,100158.22
2023-08-15T21:54:35.496Z,100167.09
2023-08-15T21:57:06.476Z,100160.72
2023-08-15T21:59:40.160Z,100162.03
2023-08-15T22:02:08.337Z,100157.81
2023-08-15T22:04:36.437Z,100154.59
2023-08-15T22:07:04.748Z,100146.84
2023-08-15T22:09:32.927Z,100155.28
2023-08-15T22:12:02.366Z,100145.66
2023-08-15T22:14:30.452Z,100152.22
2023-08-15T22:16:58.639Z,100152.53
2023-08-15T22:19:26.763Z,100158.25
2023-08-15T22:21:54.982Z,100146.28
2023-08-15T22:24:23.106Z,100153.53
2023-08-15T22:26:51.311Z,100151.81
2023-08-15T22:29:20.801Z,100153.66
2023-08-15T22:31:48.991Z,100152.69
2023-08-15T22:34:17.476Z,100142.25
2023-08-15T22:36:46.240Z,100153.19
2023-08-15T22:39:14.359Z,100151.72
2023-08-15T22:41:42.409Z,100151.34
2023-08-15T22:44:11.237Z,100145.84
2023-08-15T22:46:40.729Z,100138.94
2023-08-15T22:49:08.882Z,100146.84
2023-08-15T22:51:37.017Z,100135.22
2023-08-15T22:54:05.585Z,100135.56
2023-08-15T22:56:33.665Z,100127.66
2023-08-15T22:59:01.772Z,100127.34
2023-08-15T23:01:29.949Z,100124.28
2023-08-15T23:04:00.688Z,100125.81
2023-08-15T23:06:29.008Z,100128.66
2023-08-15T23:08:57.072Z,100125.44
2023-08-15T23:11:25.116Z,100122.41
2023-08-15T23:13:53.161Z,100117.69
2023-08-15T23:16:21.248Z,100118.31
2023-08-15T23:18:49.890Z,100112.41
2023-08-15T23:21:19.370Z,100105.16
2023-08-15T23:23:47.396Z,100116.38
2023-08-15T23:26:15.532Z,100112.66
2023-08-15T23:28:43.660Z,100120.34
2023-08-15T23:31:12.520Z,100122.16
2023-08-15T23:33:41.082Z,100114.22
2023-08-15T23:36:09.228Z,100116.59
2023-08-15T23:38:38.681Z,100116.53
2023-08-15T23:41:06.769Z,100119.19
2023-08-15T23:43:34.884Z,100112.38
2023-08-15T23:46:03.110Z,100107.34
2023-08-15T23:48:31.133Z,100115.69
2023-08-15T23:50:59.320Z,100122.91
2023-08-15T23:53:27.649Z,100117.84
2023-08-15T23:55:57.182Z,100121.69
2023-08-15T23:58:25.271Z,100117.94
